Time;durP1;ratioP1;P1;durP2;ratioP2;P2;SDS_P1;SDS_P2;PMS_P1;PMS_P2;Temp;Humidity;BMP_temperature;BMP_pressure;BME280_temperature;BME280_humidity;BME280_pressure;Samples;Min_cycle;Max_cycle;Signal;HPM_P1;HPM_P2
2023/12/30 00:01:07;;;;;;;4.90;2.87;;;11.80;99.90;;;;;;5024198;28;20447;-69
2023/12/30 00:03:33;;;;;;;7.23;2.83;;;11.90;99.90;;;;;;5017091;28;20576;-69
2023/12/30 00:06:00;;;;;;;7.10;3.10;;;11.90;99.90;;;;;;5013197;28;21111;-69
2023/12/30 00:08:25;;;;;;;5.77;2.60;;;11.90;99.90;;;;;;5015187;28;20605;-69
2023/12/30 00:10:51;;;;;;;3.50;3.20;;;11.90;99.90;;;;;;5031060;28;20465;-70
2023/12/30 00:13:16;;;;;;;4.00;2.33;;;11.90;99.90;;;;;;5019034;28;20201;-68
2023/12/30 00:15:42;;;;;;;5.87;2.80;;;11.80;99.90;;;;;;5024688;28;20264;-68
2023/12/30 00:18:08;;;;;;;5.33;2.40;;;11.70;99.90;;;;;;5024308;28;20268;-68
2023/12/30 00:20:33;;;;;;;4.33;2.87;;;11.70;99.90;;;;;;5018831;28;20193;-68
2023/12/30 00:22:59;;;;;;;4.40;2.40;;;11.60;99.90;;;;;;5025923;28;20646;-69
2023/12/30 00:25:25;;;;;;;3.07;2.03;;;11.50;99.90;;;;;;5026807;28;20200;-69
2023/12/30 00:27:51;;;;;;;5.90;2.73;;;11.50;99.90;;;;;;5017565;28;20416;-69
2023/12/30 00:30:17;;;;;;;4.67;2.70;;;11.40;99.90;;;;;;5029904;28;20212;-69
2023/12/30 00:32:43;;;;;;;3.63;2.50;;;11.30;99.90;;;;;;5024434;28;20420;-69
2023/12/30 00:35:08;;;;;;;3.30;2.20;;;11.20;99.90;;;;;;5023875;28;20207;-68
2023/12/30 00:37:34;;;;;;;4.73;2.77;;;11.10;99.90;;;;;;5036396;28;20204;-68
2023/12/30 00:40:00;;;;;;;4.20;2.60;;;11.00;99.90;;;;;;5021935;28;20930;-69
2023/12/30 00:42:26;;;;;;;3.73;2.30;;;11.10;99.90;;;;;;5026972;28;20207;-68
2023/12/30 00:44:51;;;;;;;4.10;2.60;;;11.10;99.90;;;;;;5029275;28;20195;-68
2023/12/30 00:47:17;;;;;;;3.53;2.37;;;11.10;99.90;;;;;;5020379;28;20726;-68
2023/12/30 00:49:43;;;;;;;4.90;2.70;;;11.10;99.90;;;;;;5023744;28;20607;-68
2023/12/30 00:52:09;;;;;;;7.13;2.97;;;11.00;99.90;;;;;;5024534;28;20886;-68
2023/12/30 00:54:34;;;;;;;2.50;1.93;;;11.00;99.90;;;;;;5025573;28;20484;-68
2023/12/30 00:57:00;;;;;;;4.87;2.30;;;11.00;99.90;;;;;;5026810;28;20552;-68
2023/12/30 00:59:25;;;;;;;3.90;2.70;;;11.00;99.90;;;;;;5029461;28;20200;-69
2023/12/30 01:01:51;;;;;;;5.30;2.83;;;10.90;99.90;;;;;;5032896;28;20671;-68
2023/12/30 01:04:16;;;;;;;5.10;2.53;;;10.90;99.90;;;;;;5023593;28;20197;-68
2023/12/30 01:06:42;;;;;;;5.03;3.43;;;10.90;99.90;;;;;;5020130;28;20243;-68
2023/12/30 01:09:08;;;;;;;3.30;2.30;;;10.90;99.90;;;;;;5017546;28;20212;-67
2023/12/30 01:11:34;;;;;;;3.63;2.30;;;10.80;99.90;;;;;;5016053;28;20572;-68
2023/12/30 01:13:59;;;;;;;3.30;2.33;;;10.70;99.90;;;;;;5017118;28;20208;-69
2023/12/30 01:16:25;;;;;;;6.53;2.53;;;10.60;99.90;;;;;;5016627;28;20917;-68
2023/12/30 01:18:51;;;;;;;4.03;2.50;;;10.60;99.90;;;;;;5015727;28;20211;-68
2023/12/30 01:21:17;;;;;;;3.73;2.47;;;10.40;99.90;;;;;;5010925;28;20181;-68
2023/12/30 01:23:43;;;;;;;5.23;2.80;;;10.30;99.90;;;;;;5016435;28;20810;-68
2023/12/30 01:26:09;;;;;;;5.20;2.37;;;10.20;99.90;;;;;;5017989;28;20419;-68
2023/12/30 01:28:36;;;;;;;4.27;2.30;;;10.20;99.90;;;;;;5023508;28;20258;-68
2023/12/30 01:31:01;;;;;;;4.00;2.40;;;10.10;99.90;;;;;;5016942;28;20217;-68
2023/12/30 01:33:27;;;;;;;3.97;2.43;;;10.20;99.90;;;;;;5019284;28;22017;-67
2023/12/30 01:35:53;;;;;;;3.60;2.07;;;10.10;99.90;;;;;;5013927;28;20185;-67
2023/12/30 01:38:19;;;;;;;3.10;2.37;;;10.10;99.90;;;;;;5009718;28;20181;-68
2023/12/30 01:40:44;;;;;;;4.60;2.73;;;10.00;99.90;;;;;;5019854;28;20792;-68
2023/12/30 01:43:27;;;;;;;5.50;2.43;;;10.00;99.90;;;;;;5027752;28;20216;-68
2023/12/30 01:45:55;;;;;;;4.10;2.50;;;10.00;99.90;;;;;;5018683;28;20193;-68
2023/12/30 01:48:22;;;;;;;5.43;2.63;;;10.00;99.90;;;;;;5011425;28;20428;-68
2023/12/30 01:50:49;;;;;;;5.87;2.47;;;9.90;99.90;;;;;;5014881;28;20456;-68
2023/12/30 01:53:17;;;;;;;3.77;2.63;;;10.00;99.90;;;;;;5014121;28;20451;-68
2023/12/30 01:55:44;;;;;;;4.90;2.80;;;10.00;99.90;;;;;;5015892;28;20518;-68
2023/12/30 01:58:10;;;;;;;6.10;2.53;;;10.10;99.90;;;;;;5012464;28;20420;-67
2023/12/30 02:00:38;;;;;;;4.17;2.50;;;10.10;99.90;;;;;;5012830;28;20886;-67
2023/12/30 02:03:04;;;;;;;3.53;2.30;;;10.20;99.90;;;;;;5017265;28;20538;-68
2023/12/30 02:05:29;;;;;;;3.60;2.30;;;10.10;99.90;;;;;;5018069;28;20607;-69
2023/12/30 02:07:55;;;;;;;6.50;2.40;;;10.10;99.90;;;;;;5017015;28;20860;-68
2023/12/30 02:10:21;;;;;;;6.43;2.80;;;10.20;99.90;;;;;;5016511;28;20196;-68
2023/12/30 02:12:46;;;;;;;4.30;2.50;;;10.10;99.90;;;;;;5017956;28;20181;-68
2023/12/30 02:15:21;;;;;;;8.10;2.80;;;10.10;99.90;;;;;;5019087;28;21064;-68
2023/12/30 02:17:50;;;;;;;4.00;2.80;;;10.10;99.90;;;;;;5025832;28;20555;-68
2023/12/30 02:20:15;;;;;;;3.73;2.40;;;10.10;99.90;;;;;;5016473;28;20419;-68
2023/12/30 02:22:46;;;;;;;4.30;3.03;;;10.20;99.90;;;;;;5010464;28;20436;-68
2023/12/30 02:25:11;;;;;;;6.90;3.00;;;10.20;99.90;;;;;;5021336;28;20643;-68
2023/12/30 02:27:37;;;;;;;4.53;3.13;;;10.20;99.90;;;;;;5024226;28;20439;-68
2023/12/30 02:30:03;;;;;;;7.30;4.27;;;10.20;99.90;;;;;;5022898;28;20205;-68
2023/12/30 02:32:29;;;;;;;3.97;2.73;;;10.20;99.90;;;;;;5014438;28;20246;-70
2023/12/30 02:34:54;;;;;;;6.47;3.03;;;10.30;99.90;;;;;;5015898;28;20447;-68
2023/12/30 02:37:20;;;;;;;6.93;3.43;;;10.20;99.90;;;;;;5015777;28;20189;-68
2023/12/30 02:39:45;;;;;;;6.10;3.30;;;10.20;99.90;;;;;;5018903;28;20213;-68
2023/12/30 02:42:11;;;;;;;4.10;2.90;;;10.20;99.90;;;;;;5019148;28;20741;-68
2023/12/30 02:44:37;;;;;;;5.40;2.93;;;10.30;99.90;;;;;;5020888;28;20709;-69
2023/12/30 02:47:02;;;;;;;6.70;3.60;;;10.30;99.90;;;;;;5015728;28;20188;-68
2023/12/30 02:49:32;;;;;;;3.83;2.60;;;10.40;99.90;;;;;;5011274;28;20462;-68
2023/12/30 02:51:58;;;;;;;3.47;2.93;;;10.20;99.90;;;;;;5015859;28;20245;-68
2023/12/30 02:54:23;;;;;;;4.00;3.03;;;10.20;99.90;;;;;;5015386;28;20495;-69
2023/12/30 02:56:49;;;;;;;6.27;3.43;;;10.30;99.90;;;;;;5019416;28;20674;-69
2023/12/30 02:59:15;;;;;;;6.17;3.37;;;10.40;99.90;;;;;;5017605;28;20565;-68
2023/12/30 03:01:40;;;;;;;5.33;3.07;;;10.30;99.90;;;;;;5013748;28;20269;-68
2023/12/30 03:04:06;;;;;;;4.80;3.40;;;10.40;99.90;;;;;;5015509;28;20220;-68
2023/12/30 03:06:32;;;;;;;6.63;4.03;;;10.40;99.90;;;;;;5019957;28;20232;-68
2023/12/30 03:08:57;;;;;;;4.43;3.50;;;10.30;99.90;;;;;;5017620;28;20207;-68
2023/12/30 03:11:23;;;;;;;4.47;3.40;;;10.30;99.90;;;;;;5011827;28;20207;-68
2023/12/30 03:13:49;;;;;;;4.77;3.33;;;10.40;99.90;;;;;;5016916;28;20223;-68
2023/12/30 03:16:15;;;;;;;4.83;3.43;;;10.40;99.90;;;;;;5015294;28;21081;-68
2023/12/30 03:18:41;;;;;;;5.33;4.10;;;10.40;99.90;;;;;;5015249;28;20568;-68
2023/12/30 03:21:09;;;;;;;4.23;3.50;;;10.40;99.90;;;;;;5010962;28;20189;-68
2023/12/30 03:23:36;;;;;;;5.10;3.80;;;10.40;99.90;;;;;;5015936;28;20466;-68
2023/12/30 03:26:02;;;;;;;4.87;4.07;;;10.30;99.90;;;;;;5019689;28;20415;-68
2023/12/30 03:28:28;;;;;;;6.70;3.70;;;10.30;99.90;;;;;;5016678;28;20423;-68
2023/12/30 03:30:54;;;;;;;5.07;3.70;;;10.20;99.90;;;;;;5026392;28;20985;-68
2023/12/30 03:33:19;;;;;;;5.37;3.80;;;10.30;99.90;;;;;;5013011;28;20435;-68
2023/12/30 03:35:45;;;;;;;4.60;3.87;;;10.20;99.90;;;;;;5015632;28;20214;-68
2023/12/30 03:38:11;;;;;;;7.90;3.77;;;10.30;99.90;;;;;;5015652;28;20234;-68
2023/12/30 03:40:36;;;;;;;6.10;3.50;;;10.20;99.90;;;;;;5017725;28;20427;-68
2023/12/30 03:43:03;;;;;;;4.43;3.40;;;10.30;99.90;;;;;;5019498;28;20208;-68
2023/12/30 03:45:28;;;;;;;4.30;3.07;;;10.30;99.90;;;;;;5021906;28;20575;-68
2023/12/30 03:47:54;;;;;;;5.20;3.37;;;10.30;99.90;;;;;;5012750;28;20444;-68
2023/12/30 03:50:20;;;;;;;6.00;3.33;;;10.40;99.90;;;;;;5016221;28;20212;-68
2023/12/30 03:52:46;;;;;;;5.00;3.33;;;10.30;99.90;;;;;;5016762;28;20431;-68
2023/12/30 03:55:12;;;;;;;4.87;3.23;;;10.30;99.90;;;;;;5021915;28;20465;-68
2023/12/30 03:57:38;;;;;;;7.00;3.43;;;10.40;99.90;;;;;;5019370;28;20188;-68
2023/12/30 04:00:04;;;;;;;4.33;3.33;;;10.40;99.90;;;;;;5016744;28;20185;-68
2023/12/30 04:02:30;;;;;;;7.00;3.67;;;10.40;99.90;;;;;;5018396;28;20555;-68
2023/12/30 04:04:56;;;;;;;3.60;2.97;;;10.30;99.90;;;;;;5015207;28;20554;-68
2023/12/30 04:07:21;;;;;;;5.70;3.40;;;10.40;99.90;;;;;;5014284;28;20278;-68
2023/12/30 04:09:47;;;;;;;6.10;3.40;;;10.30;99.90;;;;;;5022840;28;20288;-68
2023/12/30 04:12:12;;;;;;;4.40;2.90;;;10.30;99.90;;;;;;5020763;28;20697;-69
2023/12/30 04:14:38;;;;;;;4.60;3.30;;;10.40;99.90;;;;;;5023684;28;20232;-69
2023/12/30 04:17:04;;;;;;;4.13;2.73;;;10.40;99.90;;;;;;5018336;28;20264;-69
2023/12/30 04:19:29;;;;;;;3.63;2.90;;;10.40;99.90;;;;;;5021830;28;20216;-68
2023/12/30 04:21:55;;;;;;;5.00;2.90;;;10.50;99.90;;;;;;5022582;28;20606;-69
2023/12/30 04:24:22;;;;;;;4.00;2.33;;;10.50;99.90;;;;;;5020359;28;20286;-68
2023/12/30 04:26:49;;;;;;;4.23;3.10;;;10.50;99.90;;;;;;5019459;28;20180;-69
2023/12/30 04:29:15;;;;;;;9.97;3.53;;;10.50;99.90;;;;;;5018816;28;20427;-68
2023/12/30 04:31:41;;;;;;;6.10;2.70;;;10.60;99.90;;;;;;5017477;28;21322;-68
2023/12/30 04:34:06;;;;;;;3.93;2.93;;;10.60;99.90;;;;;;5022886;28;20257;-68
2023/12/30 04:36:32;;;;;;;5.17;2.57;;;10.60;99.90;;;;;;5020520;28;20174;-68
2023/12/30 04:38:58;;;;;;;6.87;3.83;;;10.50;99.90;;;;;;5024865;28;20563;-68
2023/12/30 04:41:24;;;;;;;4.20;2.80;;;10.60;99.90;;;;;;5021740;28;20184;-68
2023/12/30 04:43:49;;;;;;;5.30;2.87;;;10.50;99.90;;;;;;5022581;28;20226;-68
2023/12/30 04:46:15;;;;;;;2.97;2.30;;;10.60;99.90;;;;;;5014838;28;20204;-68
2023/12/30 04:48:40;;;;;;;3.37;2.70;;;10.60;99.90;;;;;;5028883;28;20180;-68
2023/12/30 04:51:06;;;;;;;3.43;2.37;;;10.60;99.90;;;;;;5014685;28;20705;-68
2023/12/30 04:53:32;;;;;;;4.10;2.77;;;10.60;99.90;;;;;;5020174;28;20231;-68
2023/12/30 04:55:58;;;;;;;3.60;2.40;;;10.50;99.90;;;;;;5019548;28;20647;-68
2023/12/30 04:58:24;;;;;;;4.77;2.87;;;10.50;99.90;;;;;;5023901;28;20428;-68
2023/12/30 05:00:49;;;;;;;4.20;2.40;;;10.60;99.90;;;;;;5016527;28;20185;-68
2023/12/30 05:03:16;;;;;;;3.03;2.27;;;10.50;99.90;;;;;;5014332;28;20240;-69
2023/12/30 05:05:42;;;;;;;4.87;2.70;;;10.50;99.90;;;;;;5014927;28;20643;-68
2023/12/30 05:08:07;;;;;;;5.33;2.63;;;10.60;99.90;;;;;;5016486;28;20529;-68
2023/12/30 05:10:33;;;;;;;6.33;2.50;;;10.60;99.90;;;;;;5010946;28;20655;-68
2023/12/30 05:13:01;;;;;;;4.13;2.30;;;10.50;99.90;;;;;;5020018;28;20205;-68
2023/12/30 05:15:27;;;;;;;3.77;2.30;;;10.50;99.90;;;;;;5013970;28;20192;-68
2023/12/30 05:17:56;;;;;;;6.47;2.70;;;10.60;99.90;;;;;;5017558;28;20416;-69
2023/12/30 05:20:22;;;;;;;4.33;2.10;;;10.60;99.90;;;;;;5016495;28;20184;-68
2023/12/30 05:22:47;;;;;;;3.90;2.00;;;10.60;99.90;;;;;;5024534;28;20430;-67
2023/12/30 05:25:13;;;;;;;5.73;2.10;;;10.60;99.90;;;;;;5021371;28;20431;-68
2023/12/30 05:27:39;;;;;;;3.23;2.10;;;10.60;99.90;;;;;;5016179;28;20717;-68
2023/12/30 05:30:08;;;;;;;3.50;2.03;;;10.60;99.90;;;;;;5017367;28;20472;-68
2023/12/30 05:32:36;;;;;;;4.83;2.20;;;10.60;99.90;;;;;;5022643;28;20189;-68
2023/12/30 05:35:02;;;;;;;3.27;1.90;;;10.70;99.90;;;;;;5019252;28;20517;-68
2023/12/30 05:37:28;;;;;;;3.90;2.23;;;10.60;99.90;;;;;;5023290;28;20799;-68
2023/12/30 05:39:54;;;;;;;5.17;2.07;;;10.50;99.90;;;;;;5019189;28;20192;-67
2023/12/30 05:42:19;;;;;;;4.00;2.10;;;10.60;99.90;;;;;;5021218;28;20188;-68
2023/12/30 05:44:46;;;;;;;3.60;2.00;;;10.60;99.90;;;;;;5017811;28;20200;-68
2023/12/30 05:47:11;;;;;;;3.87;2.10;;;10.60;99.90;;;;;;5026354;28;20188;-68
2023/12/30 05:49:39;;;;;;;4.00;2.07;;;10.60;99.90;;;;;;5018605;28;20468;-68
2023/12/30 05:52:05;;;;;;;2.73;1.93;;;10.60;99.90;;;;;;5016665;28;20188;-68
2023/12/30 05:54:31;;;;;;;4.10;1.83;;;10.50;99.90;;;;;;5012344;28;20447;-68
2023/12/30 05:56:56;;;;;;;5.07;2.23;;;10.50;99.90;;;;;;5026289;28;20196;-69
2023/12/30 05:59:22;;;;;;;3.50;1.90;;;10.60;99.90;;;;;;5014500;28;20215;-68
2023/12/30 06:01:47;;;;;;;5.50;2.50;;;10.60;99.90;;;;;;5016681;28;20189;-69
2023/12/30 06:04:16;;;;;;;3.00;1.77;;;10.50;99.90;;;;;;5019208;28;20200;-69
2023/12/30 06:06:43;;;;;;;3.13;1.80;;;10.60;99.90;;;;;;5023563;28;20185;-67
2023/12/30 06:09:08;;;;;;;5.00;2.10;;;10.50;99.90;;;;;;5014846;28;20870;-68
2023/12/30 06:11:34;;;;;;;4.30;1.70;;;10.50;99.90;;;;;;5019706;28;20454;-67
2023/12/30 06:13:59;;;;;;;3.73;1.93;;;10.50;99.90;;;;;;5024367;28;20200;-69
2023/12/30 06:16:25;;;;;;;3.53;1.97;;;10.50;99.90;;;;;;5022488;28;20264;-68
2023/12/30 06:18:51;;;;;;;3.57;1.90;;;10.50;99.90;;;;;;5017844;28;20188;-68
2023/12/30 06:21:16;;;;;;;3.23;1.80;;;10.60;99.90;;;;;;5018407;28;20185;-68
2023/12/30 06:23:42;;;;;;;8.83;1.90;;;10.60;99.90;;;;;;5018711;28;20324;-67
2023/12/30 06:26:07;;;;;;;2.77;1.90;;;10.60;99.90;;;;;;5019787;28;20184;-68
2023/12/30 06:28:33;;;;;;;2.90;1.90;;;10.50;99.90;;;;;;5013484;28;20232;-68
2023/12/30 06:30:59;;;;;;;6.63;2.57;;;10.50;99.90;;;;;;5019995;28;20219;-68
2023/12/30 06:33:24;;;;;;;4.77;1.90;;;10.50;99.90;;;;;;5019750;28;20205;-68
2023/12/30 06:35:50;;;;;;;3.00;2.00;;;10.40;99.90;;;;;;5015145;28;20454;-69
2023/12/30 06:38:16;;;;;;;6.30;2.33;;;10.50;99.90;;;;;;5015284;28;20189;-68
2023/12/30 06:40:42;;;;;;;3.13;2.00;;;10.50;99.90;;;;;;5022802;28;20177;-68
2023/12/30 06:43:08;;;;;;;4.00;2.33;;;10.50;99.90;;;;;;5018210;28;20465;-68
2023/12/30 06:45:34;;;;;;;5.00;2.43;;;10.50;99.90;;;;;;5014052;28;20427;-68
2023/12/30 06:48:00;;;;;;;6.50;3.20;;;10.50;99.90;;;;;;5013370;28;20415;-68
2023/12/30 06:50:26;;;;;;;3.70;2.77;;;10.40;99.90;;;;;;5014722;28;20201;-68
2023/12/30 06:52:58;;;;;;;4.63;2.80;;;10.40;99.90;;;;;;5014046;28;20180;-67
2023/12/30 06:55:23;;;;;;;6.07;3.13;;;10.40;99.90;;;;;;5021732;28;20685;-69
2023/12/30 06:57:49;;;;;;;5.10;2.93;;;10.40;99.90;;;;;;5012496;28;20420;-68
2023/12/30 07:00:15;;;;;;;4.13;3.17;;;10.50;99.90;;;;;;5013624;28;20543;-68
2023/12/30 07:02:41;;;;;;;6.60;3.40;;;10.50;99.90;;;;;;5020277;28;20192;-68
2023/12/30 07:05:10;;;;;;;5.17;2.70;;;10.50;99.90;;;;;;5014406;28;20523;-68
2023/12/30 07:07:36;;;;;;;3.97;2.90;;;10.40;99.90;;;;;;5014911;28;20423;-68
2023/12/30 07:10:04;;;;;;;5.20;3.27;;;10.30;99.90;;;;;;5015614;28;20471;-68
2023/12/30 07:12:30;;;;;;;3.80;3.00;;;10.30;99.90;;;;;;5011464;28;20216;-68
2023/12/30 07:14:57;;;;;;;7.30;3.17;;;10.20;99.90;;;;;;5016435;28;20456;-69
2023/12/30 07:17:23;;;;;;;4.90;3.30;;;10.30;99.90;;;;;;5014054;28;20173;-68
2023/12/30 07:19:48;;;;;;;3.83;3.10;;;10.20;99.90;;;;;;5020907;28;20443;-68
2023/12/30 07:22:15;;;;;;;6.27;3.20;;;10.20;99.90;;;;;;5019874;28;20188;-68
2023/12/30 07:24:40;;;;;;;6.47;3.73;;;10.20;99.90;;;;;;5004683;28;20216;-68
2023/12/30 07:27:06;;;;;;;5.77;3.60;;;10.20;99.90;;;;;;5018023;28;20420;-68
2023/12/30 07:29:31;;;;;;;4.77;3.20;;;10.30;99.90;;;;;;5014592;28;20235;-68
2023/12/30 07:31:57;;;;;;;5.57;3.70;;;10.20;99.90;;;;;;5012697;28;20248;-68
2023/12/30 07:34:22;;;;;;;5.97;3.03;;;10.10;99.90;;;;;;5009338;28;20196;-68
2023/12/30 07:36:48;;;;;;;6.70;3.67;;;10.20;99.90;;;;;;5010941;28;20185;-68
2023/12/30 07:39:14;;;;;;;5.43;3.90;;;10.30;99.90;;;;;;5018981;28;20183;-68
2023/12/30 07:41:39;;;;;;;5.70;3.60;;;10.30;99.90;;;;;;5016732;28;20223;-69
2023/12/30 07:44:05;;;;;;;6.03;4.30;;;10.30;99.90;;;;;;5016754;28;20212;-70
2023/12/30 07:46:31;;;;;;;7.33;4.70;;;10.30;99.90;;;;;;5011844;28;20695;-69
2023/12/30 07:48:57;;;;;;;7.43;4.30;;;10.40;99.90;;;;;;5012518;28;20993;-69
2023/12/30 07:51:23;;;;;;;6.13;3.93;;;10.30;99.90;;;;;;5014109;28;20486;-69
2023/12/30 07:53:49;;;;;;;8.00;3.93;;;10.30;99.90;;;;;;5020476;28;20696;-69
2023/12/30 07:56:16;;;;;;;6.47;4.30;;;10.30;99.90;;;;;;5012402;28;20416;-69
2023/12/30 07:58:41;;;;;;;5.03;4.00;;;10.20;99.90;;;;;;5009279;28;20487;-69
2023/12/30 08:01:07;;;;;;;6.20;4.10;;;10.30;99.90;;;;;;5010551;28;20444;-69
2023/12/30 08:03:32;;;;;;;6.17;3.97;;;10.30;99.90;;;;;;5016381;28;20220;-69
2023/12/30 08:05:58;;;;;;;5.97;4.20;;;10.40;99.90;;;;;;5012793;28;20203;-69
2023/12/30 08:08:23;;;;;;;5.10;4.00;;;10.40;99.90;;;;;;5011425;28;20740;-69
2023/12/30 08:10:49;;;;;;;6.97;4.70;;;10.40;99.90;;;;;;5022327;28;20203;-69
2023/12/30 08:13:16;;;;;;;6.10;4.60;;;10.50;99.90;;;;;;5021350;28;20212;-68
2023/12/30 08:15:42;;;;;;;4.97;4.13;;;10.50;99.90;;;;;;5017474;28;20600;-69
2023/12/30 08:18:07;;;;;;;7.37;4.30;;;10.50;99.90;;;;;;5019708;28;20419;-69
2023/12/30 08:20:33;;;;;;;5.37;3.77;;;10.50;99.90;;;;;;5017921;28;20962;-68
2023/12/30 08:22:58;;;;;;;6.13;4.33;;;10.50;99.90;;;;;;5019614;28;21986;-69
2023/12/30 08:25:24;;;;;;;5.57;4.33;;;10.50;99.90;;;;;;5024204;28;20268;-69
2023/12/30 08:27:50;;;;;;;10.37;4.20;;;10.50;99.90;;;;;;5014707;28;20590;-68
2023/12/30 08:30:15;;;;;;;9.70;4.53;;;10.50;99.90;;;;;;5016899;28;20288;-68
2023/12/30 08:32:41;;;;;;;7.20;4.07;;;10.50;99.90;;;;;;5012381;28;20240;-68
2023/12/30 08:35:08;;;;;;;6.53;4.33;;;10.60;99.90;;;;;;5015453;28;20219;-68
2023/12/30 08:37:35;;;;;;;5.67;4.00;;;10.60;99.90;;;;;;5016681;28;20189;-69
2023/12/30 08:40:05;;;;;;;6.60;3.80;;;10.60;99.90;;;;;;5016429;28;20514;-69
2023/12/30 08:42:34;;;;;;;5.57;3.67;;;10.70;99.90;;;;;;5014620;28;20438;-69
2023/12/30 08:45:00;;;;;;;5.90;3.23;;;10.70;99.90;;;;;;5018736;28;20435;-69
2023/12/30 08:47:28;;;;;;;5.20;3.90;;;10.70;99.90;;;;;;5017887;28;20453;-69
2023/12/30 08:49:54;;;;;;;6.77;3.43;;;10.70;99.90;;;;;;5019083;28;20430;-69
2023/12/30 08:52:19;;;;;;;4.73;3.37;;;10.70;99.90;;;;;;5019677;28;20427;-69
2023/12/30 08:54:45;;;;;;;5.67;4.13;;;10.70;99.90;;;;;;5019079;28;20196;-69
2023/12/30 08:57:10;;;;;;;6.40;3.80;;;10.70;99.90;;;;;;5023261;28;20180;-69
2023/12/30 08:59:36;;;;;;;5.90;3.50;;;10.70;99.90;;;;;;5018048;28;20291;-69
2023/12/30 09:02:02;;;;;;;7.50;4.00;;;10.70;99.90;;;;;;5009423;28;20275;-70
2023/12/30 09:04:28;;;;;;;5.23;3.87;;;10.70;99.90;;;;;;5016348;28;20271;-69
2023/12/30 09:06:55;;;;;;;4.33;3.40;;;10.60;99.90;;;;;;5016029;28;20877;-69
2023/12/30 09:09:20;;;;;;;4.87;3.37;;;10.60;99.90;;;;;;5025503;28;20196;-69
2023/12/30 09:11:46;;;;;;;5.33;3.43;;;10.70;99.90;;;;;;5018484;28;20451;-69
2023/12/30 09:14:12;;;;;;;4.03;3.27;;;10.70;99.90;;;;;;5026336;28;20205;-69
2023/12/30 09:16:37;;;;;;;5.73;3.70;;;10.70;99.90;;;;;;5021064;28;20193;-70
2023/12/30 09:19:03;;;;;;;4.53;3.50;;;10.70;99.90;;;;;;5020539;28;20185;-70
2023/12/30 09:21:29;;;;;;;5.10;3.50;;;10.60;99.90;;;;;;5018464;28;20269;-69
2023/12/30 09:23:56;;;;;;;6.37;3.53;;;10.60;99.90;;;;;;5019148;28;20534;-70
2023/12/30 09:26:21;;;;;;;3.90;3.10;;;10.50;99.90;;;;;;5018990;28;20424;-69
2023/12/30 09:28:47;;;;;;;7.80;4.90;;;10.70;99.90;;;;;;5020734;28;20443;-69
2023/12/30 09:31:13;;;;;;;6.63;3.63;;;10.70;99.90;;;;;;5016726;28;20208;-69
2023/12/30 09:33:38;;;;;;;7.37;4.07;;;10.70;99.90;;;;;;5019048;28;20255;-69
2023/12/30 09:36:05;;;;;;;4.90;3.17;;;10.80;99.90;;;;;;5016339;28;20186;-69
2023/12/30 09:38:30;;;;;;;4.87;4.30;;;10.80;99.90;;;;;;5015149;28;20583;-69
2023/12/30 09:40:56;;;;;;;5.87;3.70;;;10.90;99.90;;;;;;5017470;28;20424;-70
2023/12/30 09:43:28;;;;;;;5.90;3.20;;;10.90;99.90;;;;;;5028494;28;20667;-69
2023/12/30 09:45:55;;;;;;;4.70;3.37;;;11.00;99.90;;;;;;5014081;28;20574;-69
2023/12/30 09:48:26;;;;;;;5.47;2.87;;;10.90;99.90;;;;;;5019661;28;20432;-68
2023/12/30 09:50:53;;;;;;;3.93;2.50;;;11.00;99.90;;;;;;5016589;28;20477;-70
2023/12/30 09:53:22;;;;;;;6.37;3.60;;;10.90;99.90;;;;;;5016401;28;21076;-70
2023/12/30 09:55:52;;;;;;;4.33;2.70;;;11.00;99.90;;;;;;5015371;28;20419;-68
2023/12/30 09:58:18;;;;;;;5.53;2.70;;;11.00;99.90;;;;;;5018844;28;20451;-68
2023/12/30 10:00:44;;;;;;;4.10;2.43;;;11.10;99.90;;;;;;5014860;28;20432;-69
2023/12/30 10:03:10;;;;;;;5.20;2.83;;;11.10;99.90;;;;;;5021161;28;20450;-69
2023/12/30 10:05:36;;;;;;;3.70;2.50;;;11.10;99.90;;;;;;5010487;28;20197;-69
2023/12/30 10:08:05;;;;;;;4.20;2.87;;;11.20;99.90;;;;;;5013260;28;20439;-69
2023/12/30 10:10:45;;;;;;;5.47;2.90;;;11.30;99.90;;;;;;5017930;28;20262;-69
2023/12/30 10:13:17;;;;;;;7.13;2.77;;;11.30;99.90;;;;;;5019096;28;20466;-68
2023/12/30 10:15:42;;;;;;;4.47;3.00;;;11.30;99.90;;;;;;5018264;28;20967;-69
2023/12/30 10:18:08;;;;;;;2.93;2.07;;;11.50;99.90;;;;;;5012034;28;20446;-69
2023/12/30 10:20:41;;;;;;;3.80;2.57;;;11.40;99.90;;;;;;5014966;28;20189;-69
2023/12/30 10:23:07;;;;;;;3.10;2.10;;;11.40;99.90;;;;;;5014025;28;20616;-69
2023/12/30 10:25:33;;;;;;;5.83;2.60;;;11.40;99.90;;;;;;5017961;28;20432;-70
2023/12/30 10:27:58;;;;;;;5.10;2.93;;;11.50;99.90;;;;;;5015069;28;20478;-69
2023/12/30 10:30:24;;;;;;;3.80;2.53;;;11.40;99.90;;;;;;5021518;28;21198;-69
2023/12/30 10:32:50;;;;;;;3.67;2.40;;;11.50;99.90;;;;;;5021741;28;21203;-69
2023/12/30 10:35:16;;;;;;;3.90;2.33;;;11.50;99.90;;;;;;5017162;28;20264;-69
2023/12/30 10:37:42;;;;;;;5.70;2.50;;;11.50;99.90;;;;;;5017815;28;20181;-69
2023/12/30 10:40:09;;;;;;;4.13;2.30;;;11.60;99.90;;;;;;5018622;28;20451;-68
2023/12/30 10:42:36;;;;;;;3.57;2.00;;;11.70;99.90;;;;;;5013680;28;20454;-69
2023/12/30 10:45:02;;;;;;;2.87;1.97;;;11.70;99.90;;;;;;5022652;28;20832;-69
2023/12/30 10:47:29;;;;;;;4.30;2.57;;;11.70;99.90;;;;;;5022866;28;20459;-69
2023/12/30 10:50:04;;;;;;;5.23;2.23;;;11.80;99.90;;;;;;5018101;28;20534;-68
2023/12/30 10:52:31;;;;;;;3.20;1.80;;;11.80;99.90;;;;;;5016535;28;20462;-69
2023/12/30 10:55:09;;;;;;;5.37;2.23;;;11.80;99.90;;;;;;5012196;28;20439;-69
2023/12/30 10:57:37;;;;;;;3.23;1.90;;;11.90;99.90;;;;;;5015249;28;20813;-69
2023/12/30 11:00:09;;;;;;;5.70;1.80;;;11.90;99.90;;;;;;5020245;28;20439;-69
2023/12/30 11:02:36;;;;;;;5.70;2.00;;;11.90;99.90;;;;;;5016431;28;20518;-69
2023/12/30 11:05:14;;;;;;;6.37;2.23;;;12.00;99.90;;;;;;5016207;28;20439;-69
2023/12/30 11:07:40;;;;;;;3.07;1.87;;;12.10;99.90;;;;;;5019698;28;20431;-69
2023/12/30 11:10:20;;;;;;;6.53;2.00;;;12.10;99.90;;;;;;5019791;28;20465;-69
2023/12/30 11:12:46;;;;;;;5.23;2.00;;;12.20;99.90;;;;;;5014872;28;20563;-69
2023/12/30 11:15:41;;;;;;;4.77;1.50;;;12.20;99.90;;;;;;5018096;28;21011;-69
2023/12/30 11:18:12;;;;;;;3.00;1.87;;;12.30;99.90;;;;;;5001232;28;20193;-69
2023/12/30 11:20:48;;;;;;;7.67;2.20;;;12.40;99.90;;;;;;5008671;28;20565;-69
2023/12/30 11:23:15;;;;;;;4.57;1.90;;;12.40;99.90;;;;;;5012188;28;20467;-69
2023/12/30 11:25:46;;;;;;;8.10;3.37;;;12.50;99.90;;;;;;5018442;28;20426;-69
2023/12/30 11:28:21;;;;;;;5.13;2.43;;;12.50;99.90;;;;;;5015500;28;20435;-69
2023/12/30 11:30:57;;;;;;;2.70;1.60;;;12.60;99.90;;;;;;5022621;28;20946;-69
2023/12/30 11:33:23;;;;;;;6.20;2.10;;;12.60;99.90;;;;;;5020855;28;20447;-69
2023/12/30 11:35:54;;;;;;;3.33;1.50;;;12.70;99.90;;;;;;5010775;28;20515;-69
2023/12/30 11:38:20;;;;;;;4.83;1.63;;;12.60;99.90;;;;;;5014084;28;20473;-69
2023/12/30 11:40:57;;;;;;;3.13;1.50;;;12.60;99.90;;;;;;5011775;28;20425;-69
2023/12/30 11:43:25;;;;;;;4.23;1.70;;;12.70;99.90;;;;;;5015359;28;20454;-70
2023/12/30 11:45:51;;;;;;;5.23;1.63;;;12.60;99.90;;;;;;5010553;28;20511;-69
2023/12/30 11:48:17;;;;;;;2.50;1.60;;;12.60;99.90;;;;;;5012661;28;20435;-69
2023/12/30 11:50:43;;;;;;;3.30;1.77;;;12.80;99.90;;;;;;5014025;28;20463;-69
2023/12/30 11:53:08;;;;;;;3.90;1.47;;;12.80;99.90;;;;;;5016317;28;20288;-69
2023/12/30 11:55:34;;;;;;;4.87;1.83;;;12.90;99.90;;;;;;5014198;28;20185;-69
2023/12/30 11:58:00;;;;;;;3.30;1.80;;;13.20;99.90;;;;;;5017460;28;20185;-69
2023/12/30 12:00:26;;;;;;;4.60;1.70;;;13.40;99.90;;;;;;5020321;28;20197;-69
2023/12/30 12:02:53;;;;;;;2.90;1.83;;;13.80;99.90;;;;;;5017902;28;20419;-69
2023/12/30 12:05:19;;;;;;;4.70;1.87;;;14.10;99.90;;;;;;5022456;28;20424;-69
2023/12/30 12:07:45;;;;;;;4.30;1.93;;;14.00;99.90;;;;;;5023978;28;20492;-69
2023/12/30 12:10:11;;;;;;;4.60;1.73;;;14.20;99.90;;;;;;5011309;28;20479;-68
2023/12/30 12:12:37;;;;;;;3.60;1.90;;;14.40;99.90;;;;;;5018666;28;20193;-69
2023/12/30 12:15:04;;;;;;;4.10;2.07;;;14.60;99.90;;;;;;5022251;28;20604;-70
2023/12/30 12:17:30;;;;;;;3.47;1.83;;;14.70;99.90;;;;;;5022847;28;20427;-69
2023/12/30 12:19:56;;;;;;;3.23;2.10;;;14.60;99.90;;;;;;5018556;28;20443;-69
2023/12/30 12:22:21;;;;;;;2.83;1.63;;;14.60;99.90;;;;;;5013732;28;20747;-68
2023/12/30 12:24:47;;;;;;;2.63;1.80;;;15.40;99.90;;;;;;5020273;28;20565;-68
2023/12/30 12:27:23;;;;;;;2.70;1.60;;;15.70;99.90;;;;;;5018826;28;20685;-69
2023/12/30 12:29:54;;;;;;;2.60;1.60;;;15.70;99.90;;;;;;5024462;28;20219;-69
2023/12/30 12:32:20;;;;;;;3.40;1.90;;;16.40;99.90;;;;;;5022776;28;20450;-69
2023/12/30 12:34:49;;;;;;;2.97;1.90;;;16.80;99.90;;;;;;5022307;28;20443;-69
2023/12/30 12:37:18;;;;;;;3.10;1.67;;;17.10;99.90;;;;;;5024293;28;21752;-69
2023/12/30 12:39:45;;;;;;;3.07;1.80;;;17.20;99.90;;;;;;5016575;28;20519;-68
2023/12/30 12:42:11;;;;;;;3.57;2.10;;;17.00;99.90;;;;;;5015730;28;20482;-68
2023/12/30 12:44:38;;;;;;;3.20;1.93;;;17.00;99.90;;;;;;5022206;28;20495;-68